Time;durP1;ratioP1;P1;durP2;ratioP2;P2;SDS_P1;SDS_P2;PMS_P1;PMS_P2;Temp;Humidity;BMP_temperature;BMP_pressure;BME280_temperature;BME280_humidity;BME280_pressure;Samples;Min_cycle;Max_cycle;Signal;HPM_P1;HPM_P2
2022/01/24 00:04:33;;;;;;;3.20;1.35;;;5.00;99.90;;;;;;6770267;88;20276;-77
2022/01/24 00:35:12;;;;;;;2.80;1.37;;;4.80;99.90;;;;;;6757190;87;20730;-73
2022/01/24 00:45:25;;;;;;;2.87;1.60;;;4.70;99.90;;;;;;6760745;87;20212;-73
2022/01/24 00:55:26;;;;;;;3.22;1.77;;;4.80;99.90;;;;;;6756539;87;20495;-73
2022/01/24 01:05:44;;;;;;;3.78;1.62;;;4.80;99.90;;;;;;6751003;87;21115;-73
2022/01/24 01:26:09;;;;;;;4.82;1.98;;;4.60;99.90;;;;;;6755609;87;20187;-73
2022/01/24 01:36:20;;;;;;;4.28;2.03;;;4.60;99.90;;;;;;6754870;87;20202;-73
2022/01/24 01:56:41;;;;;;;3.72;1.83;;;4.70;99.90;;;;;;6756537;87;20699;-73
2022/01/24 02:06:43;;;;;;;3.45;1.92;;;4.60;99.90;;;;;;6758846;87;20822;-73
2022/01/24 02:16:55;;;;;;;5.15;1.98;;;4.70;99.90;;;;;;6765644;87;20929;-73
2022/01/24 02:26:57;;;;;;;3.22;1.73;;;4.70;99.90;;;;;;6756548;87;20225;-73
2022/01/24 02:37:02;;;;;;;3.20;1.83;;;4.70;99.90;;;;;;6754140;87;21320;-73
2022/01/24 02:57:22;;;;;;;2.70;1.75;;;4.60;99.90;;;;;;6755413;87;20209;-73
2022/01/24 03:07:23;;;;;;;3.10;2.10;;;4.50;99.90;;;;;;6755011;87;20217;-74
2022/01/24 03:17:24;;;;;;;4.30;2.10;;;4.50;99.90;;;;;;6758604;87;20167;-73
2022/01/24 03:27:24;;;;;;;6.68;2.62;;;4.40;99.90;;;;;;6758490;87;20199;-73
2022/01/24 03:37:25;;;;;;;4.18;2.55;;;4.40;99.90;;;;;;6757639;87;20198;-73
2022/01/24 03:57:35;;;;;;;3.30;2.08;;;4.30;99.90;;;;;;6762061;87;20645;-73
2022/01/24 04:07:36;;;;;;;3.40;2.33;;;4.30;99.90;;;;;;6762859;87;20248;-73
2022/01/24 04:17:41;;;;;;;3.72;2.80;;;4.20;99.90;;;;;;6760833;87;20292;-73
2022/01/24 04:27:41;;;;;;;4.57;2.33;;;4.10;99.90;;;;;;6754764;87;20245;-74
2022/01/24 04:37:42;;;;;;;3.58;2.30;;;4.00;99.90;;;;;;6751582;87;20750;-74
2022/01/24 04:58:09;;;;;;;4.37;2.85;;;3.70;99.90;;;;;;6747644;87;20184;-73
2022/01/24 05:08:10;;;;;;;4.72;3.08;;;3.20;99.90;;;;;;6756225;87;20181;-73
2022/01/24 05:28:31;;;;;;;5.60;3.60;;;2.80;99.90;;;;;;6761086;87;20224;-73
2022/01/24 05:38:32;;;;;;;7.78;4.05;;;2.50;99.90;;;;;;6755541;87;20188;-74
2022/01/24 05:48:32;;;;;;;7.55;3.83;;;2.60;99.90;;;;;;6761672;87;20200;-73
2022/01/24 05:58:33;;;;;;;5.50;3.60;;;2.50;99.90;;;;;;6758559;87;20219;-73
2022/01/24 06:08:34;;;;;;;5.45;2.92;;;2.40;99.90;;;;;;6760610;87;20183;-73
2022/01/24 06:18:35;;;;;;;8.30;3.95;;;2.30;99.90;;;;;;6749403;77;20237;-75
2022/01/24 06:28:35;;;;;;;4.62;3.17;;;2.10;99.90;;;;;;6759678;87;20209;-75
2022/01/24 06:38:36;;;;;;;4.78;3.00;;;2.10;99.90;;;;;;6759955;87;20211;-74
2022/01/24 06:48:36;;;;;;;6.22;4.10;;;1.90;99.90;;;;;;6759656;87;20808;-75
2022/01/24 06:58:37;;;;;;;6.35;3.95;;;1.90;99.90;;;;;;6757500;87;20209;-75
2022/01/24 07:08:38;;;;;;;7.20;4.20;;;1.70;99.90;;;;;;6754489;87;20516;-74
2022/01/24 07:18:58;;;;;;;8.10;4.25;;;1.40;99.90;;;;;;6755960;87;20693;-74
2022/01/24 07:28:58;;;;;;;8.77;5.12;;;1.20;99.90;;;;;;6756470;87;20250;-75
2022/01/24 07:38:59;;;;;;;8.23;4.40;;;1.50;99.90;;;;;;6753361;87;20630;-76
2022/01/24 07:49:06;;;;;;;8.17;4.73;;;1.50;99.90;;;;;;6748971;87;20315;-74
2022/01/24 07:59:07;;;;;;;7.07;4.40;;;1.60;99.90;;;;;;6756075;87;20584;-74
2022/01/24 08:09:09;;;;;;;10.38;5.60;;;2.00;99.90;;;;;;6761727;87;20210;-74
2022/01/24 08:19:10;;;;;;;7.60;4.22;;;2.00;99.90;;;;;;6761178;87;20171;-74
2022/01/24 08:29:10;;;;;;;6.95;4.75;;;2.10;99.90;;;;;;6765583;87;20191;-75
2022/01/24 08:39:11;;;;;;;7.03;4.95;;;2.30;99.90;;;;;;6757131;87;20191;-74
2022/01/24 08:49:11;;;;;;;7.30;4.62;;;2.50;99.90;;;;;;6762075;87;20209;-75
2022/01/24 08:59:13;;;;;;;8.13;5.05;;;2.70;99.90;;;;;;6759640;87;20203;-75
2022/01/24 09:09:15;;;;;;;6.25;3.70;;;3.30;99.90;;;;;;6763069;87;21084;-74
2022/01/24 09:19:15;;;;;;;7.43;4.57;;;3.60;99.90;;;;;;6761303;87;20192;-75
2022/01/24 09:29:16;;;;;;;7.78;4.57;;;3.80;99.90;;;;;;6757325;87;20760;-75
2022/01/24 09:39:18;;;;;;;6.22;4.18;;;3.90;99.90;;;;;;6762295;87;20196;-75
2022/01/24 09:49:19;;;;;;;5.85;4.25;;;4.00;99.90;;;;;;6770625;87;20180;-75
2022/01/24 09:59:19;;;;;;;5.90;4.00;;;4.20;99.90;;;;;;6761075;87;20268;-75
2022/01/24 10:09:30;;;;;;;8.73;4.43;;;4.20;99.90;;;;;;6759844;87;20570;-75
2022/01/24 10:19:30;;;;;;;7.57;4.57;;;4.30;99.90;;;;;;6761649;87;20570;-75
2022/01/24 10:29:31;;;;;;;7.87;4.85;;;4.50;99.90;;;;;;6755756;87;20206;-75
2022/01/24 10:49:38;;;;;;;8.83;5.00;;;4.50;99.90;;;;;;6758678;87;20775;-75
2022/01/24 10:59:39;;;;;;;7.30;4.50;;;4.60;99.90;;;;;;6761886;87;20176;-75
2022/01/24 11:09:43;;;;;;;6.72;3.80;;;4.80;99.90;;;;;;6757408;87;20194;-75
2022/01/24 11:19:49;;;;;;;8.13;3.75;;;4.80;99.90;;;;;;6755955;87;20228;-75
2022/01/24 11:29:53;;;;;;;5.20;3.15;;;4.80;99.90;;;;;;6754717;87;20179;-75
2022/01/24 11:39:54;;;;;;;8.13;3.80;;;4.80;99.90;;;;;;6760974;87;20231;-75
2022/01/24 11:49:55;;;;;;;5.10;3.70;;;5.00;99.90;;;;;;6757997;87;20176;-77
2022/01/24 12:00:05;;;;;;;5.57;3.47;;;5.10;99.90;;;;;;6759515;87;20672;-76
2022/01/24 12:10:24;;;;;;;4.25;3.03;;;5.00;99.90;;;;;;6764029;87;20584;-74
2022/01/24 12:21:06;;;;;;;6.95;3.75;;;5.00;99.90;;;;;;6779403;77;20633;-79
2022/01/24 12:31:17;;;;;;;8.38;3.90;;;5.00;99.90;;;;;;6726601;88;20255;-80
2022/01/24 12:41:35;;;;;;;5.60;3.50;;;5.00;99.90;;;;;;6725090;88;20339;-79
2022/01/24 12:51:37;;;;;;;8.23;3.15;;;5.10;99.90;;;;;;6707596;88;20275;-79
2022/01/24 13:01:38;;;;;;;5.05;3.50;;;5.10;99.90;;;;;;6707400;88;20645;-78
2022/01/24 13:11:49;;;;;;;4.82;3.10;;;5.10;99.90;;;;;;6707117;88;20181;-79
2022/01/24 13:22:01;;;;;;;9.20;4.40;;;5.00;99.90;;;;;;6712246;88;20176;-78
2022/01/24 13:32:02;;;;;;;6.50;3.90;;;5.10;99.90;;;;;;6741998;88;20205;-79
2022/01/24 13:42:03;;;;;;;6.60;4.55;;;5.30;99.90;;;;;;6741694;88;20172;-79
2022/01/24 13:52:12;;;;;;;6.10;4.18;;;5.10;99.90;;;;;;6740804;88;20319;-78
2022/01/24 14:02:17;;;;;;;7.93;4.75;;;5.00;99.90;;;;;;6741159;88;20189;-79
2022/01/24 14:12:30;;;;;;;7.87;4.75;;;5.10;99.90;;;;;;6744421;88;20253;-79
2022/01/24 14:22:45;;;;;;;6.15;4.07;;;5.10;99.90;;;;;;6744264;88;20650;-79
2022/01/24 14:33:18;;;;;;;6.65;4.70;;;5.00;99.90;;;;;;6744767;88;20177;-79
2022/01/24 14:53:40;;;;;;;8.32;4.97;;;5.00;99.90;;;;;;6750506;88;20231;-80
2022/01/24 15:03:42;;;;;;;9.82;5.18;;;5.00;99.90;;;;;;6746866;88;20217;-80
2022/01/24 15:13:54;;;;;;;7.80;5.25;;;5.10;99.90;;;;;;6744207;88;20501;-80
2022/01/24 15:34:14;;;;;;;8.00;4.75;;;5.00;99.90;;;;;;6742277;88;20197;-79
2022/01/24 15:54:28;;;;;;;9.13;4.60;;;5.00;99.90;;;;;;6742547;88;20227;-78
2022/01/24 16:04:29;;;;;;;8.90;5.68;;;4.90;99.90;;;;;;6740933;88;20621;-78
2022/01/24 16:14:29;;;;;;;8.68;5.10;;;4.90;99.90;;;;;;6741178;88;20700;-80
2022/01/24 16:34:31;;;;;;;9.60;5.55;;;4.70;99.90;;;;;;6746613;88;20186;-78
2022/01/24 16:44:42;;;;;;;7.50;4.80;;;4.60;99.90;;;;;;6750183;88;20230;-79
2022/01/24 16:54:47;;;;;;;12.63;6.18;;;4.60;99.90;;;;;;6744770;88;20269;-79
2022/01/24 17:04:48;;;;;;;9.70;5.87;;;4.50;99.90;;;;;;6744345;88;20188;-79
2022/01/24 17:14:53;;;;;;;10.18;5.78;;;4.60;99.90;;;;;;6746705;88;20256;-79
2022/01/24 17:24:53;;;;;;;10.88;6.90;;;4.50;99.90;;;;;;6741505;87;20223;-78
2022/01/24 17:34:55;;;;;;;11.93;6.60;;;4.60;99.90;;;;;;6740612;88;20180;-79
2022/01/24 17:44:55;;;;;;;12.60;7.20;;;4.60;99.90;;;;;;6745238;88;20233;-78
2022/01/24 17:54:56;;;;;;;13.43;8.07;;;4.50;99.90;;;;;;6748666;88;20205;-80
2022/01/24 18:04:56;;;;;;;10.05;6.97;;;4.50;99.90;;;;;;6766633;88;21119;-79
2022/01/24 18:14:57;;;;;;;13.55;7.57;;;4.50;99.90;;;;;;6739452;77;20271;-75
2022/01/24 18:24:57;;;;;;;9.80;6.90;;;4.50;99.90;;;;;;6729234;88;20181;-73
2022/01/24 18:34:58;;;;;;;12.40;7.93;;;4.50;99.90;;;;;;6739549;88;20527;-75
2022/01/24 18:45:03;;;;;;;10.68;8.02;;;4.50;99.90;;;;;;6736821;88;20234;-74
2022/01/24 18:55:05;;;;;;;15.40;8.70;;;4.60;99.90;;;;;;6737097;88;20193;-74
2022/01/24 19:05:06;;;;;;;13.90;6.80;;;4.50;99.90;;;;;;6740081;88;20218;-73
2022/01/24 19:15:11;;;;;;;13.13;8.00;;;4.50;99.90;;;;;;6741929;87;20216;-74
2022/01/24 19:25:13;;;;;;;14.45;7.80;;;4.50;99.90;;;;;;6741387;88;20228;-73
2022/01/24 19:35:20;;;;;;;13.25;8.90;;;4.40;99.90;;;;;;6743205;87;22169;-74
2022/01/24 19:45:23;;;;;;;11.98;7.45;;;4.30;99.90;;;;;;6748258;88;20184;-74
2022/01/24 19:55:32;;;;;;;13.05;8.02;;;4.30;99.90;;;;;;6738708;88;20226;-74
2022/01/24 20:05:33;;;;;;;11.75;7.20;;;4.20;99.90;;;;;;6739421;88;20208;-74
2022/01/24 20:15:35;;;;;;;13.68;6.97;;;4.10;99.90;;;;;;6743608;88;20203;-74
2022/01/24 20:25:36;;;;;;;12.30;7.85;;;4.10;99.90;;;;;;6738244;88;20774;-74
2022/01/24 20:35:36;;;;;;;12.63;8.05;;;4.00;99.90;;;;;;6739686;88;20169;-74
2022/01/24 20:45:38;;;;;;;12.30;7.67;;;4.10;99.90;;;;;;6739507;88;20632;-73
2022/01/24 20:55:40;;;;;;;12.75;6.95;;;4.10;99.90;;;;;;6737856;87;20688;-74
2022/01/24 21:05:41;;;;;;;13.45;6.97;;;4.10;99.90;;;;;;6737293;88;20169;-74
2022/01/24 21:15:41;;;;;;;13.55;8.57;;;4.00;99.90;;;;;;6737380;88;20341;-74
2022/01/24 21:25:42;;;;;;;13.95;8.50;;;3.90;99.90;;;;;;6738474;87;20237;-74
2022/01/24 21:35:43;;;;;;;10.93;7.07;;;4.00;99.90;;;;;;6736041;88;20787;-74
2022/01/24 21:45:43;;;;;;;12.10;7.35;;;3.90;99.90;;;;;;6737248;88;20217;-74
2022/01/24 21:55:44;;;;;;;12.50;7.15;;;3.90;99.90;;;;;;6736292;88;20176;-74
2022/01/24 22:05:44;;;;;;;13.48;8.18;;;3.80;99.90;;;;;;6735050;88;20227;-74
2022/01/24 22:15:45;;;;;;;13.82;8.38;;;3.70;99.90;;;;;;6741072;88;21202;-75
2022/01/24 22:25:50;;;;;;;13.90;8.17;;;3.60;99.90;;;;;;6739058;88;20966;-74
2022/01/24 22:35:51;;;;;;;12.57;7.43;;;3.70;99.90;;;;;;6741833;87;20576;-74
2022/01/24 22:45:52;;;;;;;10.75;5.82;;;3.40;99.90;;;;;;6741774;87;20225;-74
2022/01/24 22:55:52;;;;;;;14.63;8.23;;;3.40;99.90;;;;;;6744014;88;20206;-74
2022/01/24 23:05:53;;;;;;;21.45;9.07;;;3.30;99.90;;;;;;6747318;87;20189;-74
2022/01/24 23:26:14;;;;;;;17.25;9.52;;;3.30;99.90;;;;;;6738264;88;20693;-75
2022/01/24 23:46:37;;;;;;;18.92;9.65;;;3.20;99.90;;;;;;6748886;87;20169;-74
